Wilmington, NC

2:06 AM EDT on June 28, 2017 (GMT -0400)
Woodlawn | | Change Station

Elev 25 ft 34.21 °N, 77.94 °W | Updated 9 seconds ago

Clear
Clear
73.4 °F
Feels Like 76 °F
N
0.0
Wind Variable Wind from NE
Gusts 0.0 mph

Today
High -- | Low -- °F
--% Chance of Precip.
Yesterday
High -- | Low -- °F
Precip. -- in
Pressure 30.08 in
Visibility 10.0 miles
Clouds Clear
Heat Index 76 °F
Dew Point 59 °F
Humidity 61%
Rainfall 0.00 in
Snow Depth Not available.
6:02 AM 8:27 PM
Waxing Crescent, 22% visible
METAR KILM 280553Z 02007KT 10SM CLR 22/16 A3008 RMK AO2 SLP185 T02170161 10256 20217 51010
Pressure 30.08 in
Visibility 10.0 miles
Clouds Clear
Heat Index 76 °F
Dew Point 59 °F
Humidity 61%
Rainfall 0.00 in
Snow Depth Not available.
6:02 AM 8:27 PM
Waxing Crescent, 22% visible
METAR KILM 280553Z 02007KT 10SM CLR 22/16 A3008 RMK AO2 SLP185 T02170161 10256 20217 51010

Get Your Daily Forecast Email!

Thanks for signing up!

Be on the lookout for a verification email in your inbox.

You'll start receiving severe weather alerts in your inbox..

×

10-Day Weather Forecast

Almanac

Astronomy

Jun. 28, 2017 Rise Set
Actual Time
Civil Twilight
Nautical Twilight
Astronomical Twilight
Moon
Length of Visible Light
Length of Day
Tomorrow will be .
, % of the Moon is Illuminated

Today's Extremes

State Highs State Lows

Community

WunderPhotos

Category 6

Welcome to Category 6. This is the collective home for Weather Underground's featured writeups by Dr. Jeff Masters (right), Bob Henson (left), Chris Burt, and other regular contributors.

Nearby

Air Quality

  Air Quality AQ Index Pollutant
Not available.

Snow Depth

Station Depth Elevation

Earthquake Activity

City Distance Mag. Time & Date
Minimum magnitude displayed is 2.5.

Coastal Water Temperatures

Place Temperature

Stations

Nearby Weather Stations

Station Location Temp. Windchill Dew Point Humidity Wind Precip. Elev Updated Type
                   

Watches & Warnings

Flood Watch / Flood Statement
Issued: 2:01 AM EDT Jun. 28, 2017 – National Weather Service

... Coastal flood advisory has expired...

Water levels along the lower Cape Fear River are receding now.


8


201 am EDT Wed Jun 28 2017

... Coastal flood advisory has expired...

Water levels along the lower Cape Fear River are receding now.


8